Time;durP1;ratioP1;P1;durP2;ratioP2;P2;SDS_P1;SDS_P2;PMS_P1;PMS_P2;Temp;Humidity;BMP_temperature;BMP_pressure;BME280_temperature;BME280_humidity;BME280_pressure;Samples;Min_cycle;Max_cycle;Signal;HPM_P1;HPM_P2
2022/01/23 00:02:13;;;;;;;8.30;4.67;;;;;;;-4.70;72.79;96198.05;1690234;85;21030;-72
2022/01/23 00:04:37;;;;;;;8.80;4.10;;;;;;;-4.67;72.70;96193.91;1690222;85;21054;-73
2022/01/23 00:07:08;;;;;;;7.23;4.40;;;;;;;-4.63;72.45;96198.41;1690513;84;21015;-73
2022/01/23 00:09:34;;;;;;;8.50;4.33;;;;;;;-4.56;72.50;96194.45;1690267;84;21074;-72
2022/01/23 00:12:06;;;;;;;4.50;3.00;;;;;;;-4.56;72.28;96199.61;1690330;85;21015;-72
2022/01/23 00:17:18;;;;;;;5.87;3.13;;;;;;;-4.60;72.17;96200.25;1690324;84;21026;-72
2022/01/23 00:19:56;;;;;;;8.77;4.23;;;;;;;-4.62;72.10;96196.30;1690213;84;21153;-73
2022/01/23 00:22:31;;;;;;;7.50;4.60;;;;;;;-4.61;72.19;96199.38;1690470;84;21054;-73
2022/01/23 00:30:29;;;;;;;6.97;4.17;;;;;;;-4.63;72.27;96200.98;1702803;84;21061;-73
2022/01/23 00:33:01;;;;;;;12.27;5.97;;;;;;;-4.65;72.15;96204.30;1705359;84;21511;-73
2022/01/23 00:35:29;;;;;;;14.87;7.83;;;;;;;-4.68;72.06;96207.61;1705415;84;21053;-72
2022/01/23 00:37:58;;;;;;;9.53;5.30;;;;;;;-4.66;72.12;96212.81;1705035;84;21085;-73
2022/01/23 00:40:27;;;;;;;7.23;3.80;;;;;;;-4.67;71.93;96206.78;1705237;84;20974;-72
2022/01/23 00:42:55;;;;;;;9.20;5.10;;;;;;;-4.71;70.81;96205.27;1705341;84;21072;-72
2022/01/23 00:48:06;;;;;;;7.93;5.37;;;;;;;-4.58;71.56;96213.69;1705359;84;21563;-73
2022/01/23 00:50:40;;;;;;;9.77;5.10;;;;;;;-4.49;71.87;96217.52;1705303;84;21528;-72
2022/01/23 00:53:10;;;;;;;13.07;6.97;;;;;;;-4.53;70.19;96217.78;1704861;84;21846;-73
2022/01/23 00:55:41;;;;;;;7.37;4.53;;;;;;;-4.53;70.63;96216.49;1705255;84;21098;-73
2022/01/23 00:58:09;;;;;;;7.67;3.73;;;;;;;-4.60;70.38;96210.55;1704652;84;21030;-72
2022/01/23 01:00:36;;;;;;;9.40;5.10;;;;;;;-4.66;70.03;96208.58;1705030;84;21022;-72
2022/01/23 01:03:04;;;;;;;10.03;5.20;;;;;;;-4.65;70.48;96214.19;1704980;84;21003;-73
2022/01/23 01:05:31;;;;;;;13.13;7.17;;;;;;;-4.70;70.71;96204.48;1705524;84;21030;-72
2022/01/23 01:08:01;;;;;;;7.50;4.53;;;;;;;-4.69;70.83;96205.82;1704933;84;21049;-73
2022/01/23 01:10:37;;;;;;;7.33;3.23;;;;;;;-4.74;70.58;96206.00;1705243;84;21037;-73
2022/01/23 01:13:00;;;;;;;6.57;3.50;;;;;;;-4.74;70.29;96205.13;1703614;84;21641;-72
2022/01/23 01:32:00;;;;;;;4.33;2.30;;;;;;;-4.70;70.15;96189.03;1705194;84;21147;-72
2022/01/23 01:34:34;;;;;;;7.67;3.90;;;;;;;-4.72;69.78;96182.50;1704141;84;21038;-72
2022/01/23 01:36:52;;;;;;;6.63;3.67;;;;;;;-4.69;70.02;96186.92;1702079;84;21027;-73
2022/01/23 01:39:25;;;;;;;8.57;4.13;;;;;;;-4.69;69.82;96189.08;1705078;84;21042;-72
2022/01/23 01:41:53;;;;;;;5.20;3.10;;;;;;;-4.68;69.60;96196.02;1705467;84;21050;-72
2022/01/23 01:44:22;;;;;;;5.40;3.43;;;;;;;-4.69;69.74;96195.94;1705252;84;21013;-72
2022/01/23 01:46:57;;;;;;;7.17;3.60;;;;;;;-4.63;69.83;96197.54;1703339;84;21061;-72
2022/01/23 01:49:31;;;;;;;7.10;3.40;;;;;;;-4.66;69.80;96193.13;1705164;84;21492;-72
2022/01/23 01:51:58;;;;;;;6.87;3.53;;;;;;;-4.62;69.85;96188.99;1704545;84;21034;-72
2022/01/23 01:54:29;;;;;;;5.83;3.70;;;;;;;-4.60;69.93;96188.26;1705253;84;21017;-72
2022/01/23 02:03:06;;;;;;;8.20;3.77;;;;;;;-4.63;70.51;96204.85;1704858;84;21033;-73
2022/01/23 02:10:49;;;;;;;6.17;3.57;;;;;;;-4.63;71.58;96200.11;1705414;84;21001;-73
2022/01/23 02:13:18;;;;;;;8.57;4.53;;;;;;;-4.70;72.01;96197.63;1705029;84;21014;-72
2022/01/23 02:18:43;;;;;;;5.40;2.63;;;;;;;-4.69;72.06;96198.51;1703847;84;21536;-72
2022/01/23 02:56:53;;;;;;;6.90;3.90;;;;;;;-4.59;69.22;96214.89;1660745;85;21552;-72
2022/01/23 02:59:29;;;;;;;6.63;3.17;;;;;;;-4.57;69.04;96211.58;1690020;85;21034;-72
2022/01/23 03:02:25;;;;;;;8.47;3.93;;;;;;;-4.60;68.70;96215.30;1690189;84;20987;-72
2022/01/23 03:05:01;;;;;;;10.53;4.30;;;;;;;-4.63;68.73;96217.73;1688431;85;21078;-72
2022/01/23 03:07:53;;;;;;;7.90;4.30;;;;;;;-4.61;69.03;96212.63;1690165;85;21575;-72
2022/01/23 03:10:18;;;;;;;9.40;4.03;;;;;;;-4.62;69.30;96215.62;1686418;85;21150;-72
2022/01/23 03:13:26;;;;;;;8.93;4.25;;;;;;;-4.57;69.46;96218.42;1689617;85;21034;-72
2022/01/23 03:26:14;;;;;;;8.67;4.03;;;;;;;-4.58;71.67;96221.82;1690479;85;21026;-72
2022/01/23 03:28:39;;;;;;;10.40;4.30;;;;;;;-4.55;71.80;96216.81;1687946;85;21023;-72
2022/01/23 03:33:36;;;;;;;9.30;4.70;;;;;;;-4.49;71.95;96210.66;1690302;84;21023;-72
2022/01/23 03:36:04;;;;;;;6.20;3.60;;;;;;;-4.49;71.90;96214.94;1690334;84;21042;-72
2022/01/23 03:38:31;;;;;;;7.10;3.90;;;;;;;-4.57;73.03;96223.16;1661024;85;21038;-72
2022/01/23 03:40:58;;;;;;;5.07;3.07;;;;;;;-4.53;72.88;96220.36;1690046;84;21063;-72
2022/01/23 03:43:31;;;;;;;8.97;3.33;;;;;;;-4.57;72.75;96217.14;1690303;85;21050;-72
2022/01/23 03:51:13;;;;;;;9.50;5.40;;;;;;;-4.64;73.68;96208.62;1690366;84;21504;-72
2022/01/23 03:53:41;;;;;;;13.33;5.60;;;;;;;-4.60;74.45;96215.70;1689289;85;21019;-72
2022/01/23 03:56:08;;;;;;;10.47;5.37;;;;;;;-4.57;74.69;96221.00;1690369;84;21070;-72
2022/01/23 03:58:35;;;;;;;13.70;6.47;;;;;;;-4.57;75.12;96215.44;1690077;84;21103;-72
2022/01/23 04:01:04;;;;;;;12.87;6.97;;;;;;;-4.55;75.58;96225.83;1690489;85;21540;-71
2022/01/23 04:03:34;;;;;;;11.10;6.20;;;;;;;-4.49;75.56;96220.09;1690105;84;21082;-72
2022/01/23 04:06:00;;;;;;;14.13;6.67;;;;;;;-4.39;75.87;96223.17;1690290;84;21011;-72
2022/01/23 04:08:27;;;;;;;12.37;7.50;;;;;;;-4.27;76.15;96217.74;1690377;84;21374;-72
2022/01/23 04:10:53;;;;;;;12.43;7.20;;;;;;;-4.30;76.20;96214.15;1690264;84;21047;-72
2022/01/23 04:13:29;;;;;;;12.63;6.87;;;;;;;-4.33;75.97;96221.33;1690121;84;21111;-72
2022/01/23 04:45:39;;;;;;;13.57;7.37;;;;;;;-4.32;76.97;96193.45;1690374;84;21038;-72
2022/01/23 05:04:35;;;;;;;8.87;4.90;;;;;;;-4.35;77.40;96198.05;1658919;85;20999;-72
2022/01/23 05:07:11;;;;;;;11.00;5.77;;;;;;;-4.35;76.20;96198.05;1687478;85;21043;-72
2022/01/23 05:09:55;;;;;;;12.77;5.83;;;;;;;-4.40;76.10;96194.38;1690235;85;21063;-72
2022/01/23 05:12:28;;;;;;;11.50;6.10;;;;;;;-4.49;76.22;96194.33;1687475;85;20987;-72
2022/01/23 05:14:52;;;;;;;11.97;5.80;;;;;;;-4.61;77.10;96198.09;1689744;85;21042;-72
2022/01/23 05:17:19;;;;;;;10.83;5.37;;;;;;;-4.64;76.79;96193.17;1690404;84;21038;-72
2022/01/23 05:19:46;;;;;;;9.67;4.40;;;;;;;-4.65;77.50;96194.88;1690074;84;21565;-72
2022/01/23 05:25:02;;;;;;;;;;;;;;;-4.58;76.67;96195.66;1631218;87;21115;-72
2022/01/23 05:27:27;;;;;;;12.07;4.90;;;;;;;-4.57;76.26;96197.83;1657876;86;20109;-72
2022/01/23 05:29:55;;;;;;;10.53;4.97;;;;;;;-4.61;76.10;96201.05;1690477;84;21031;-72
2022/01/23 05:32:24;;;;;;;9.13;4.87;;;;;;;-4.62;76.11;96197.59;1695130;84;21133;-72
2022/01/23 05:34:50;;;;;;;8.53;5.03;;;;;;;-4.59;76.05;96205.87;1695011;85;21122;-72
2022/01/23 05:37:18;;;;;;;14.87;4.77;;;;;;;-4.53;76.15;96205.31;1694074;85;21058;-72
2022/01/23 05:39:47;;;;;;;8.03;4.50;;;;;;;-4.52;75.52;96207.95;1695664;85;21081;-72
2022/01/23 05:42:14;;;;;;;6.73;3.50;;;;;;;-4.50;75.34;96205.05;1695228;84;21531;-72
2022/01/23 05:44:42;;;;;;;3.43;2.27;;;;;;;-4.52;75.06;96204.49;1695604;84;21039;-72
2022/01/23 05:47:12;;;;;;;6.93;3.90;;;;;;;-4.57;74.87;96203.85;1695333;84;21042;-72
2022/01/23 05:49:46;;;;;;;5.70;2.40;;;;;;;-4.67;74.34;96203.33;1693622;85;21129;-72
2022/01/23 05:52:31;;;;;;;7.33;4.43;;;;;;;-4.72;74.30;96203.10;1695325;84;21090;-72
2022/01/23 05:55:01;;;;;;;5.60;3.10;;;;;;;-4.68;74.61;96206.73;1694198;85;21030;-72
2022/01/23 05:57:44;;;;;;;5.97;3.77;;;;;;;-4.66;74.75;96208.58;1692944;85;21050;-72
2022/01/23 06:00:16;;;;;;;3.30;1.97;;;;;;;-4.64;74.54;96213.37;1695288;85;21022;-72
2022/01/23 06:02:53;;;;;;;6.23;3.10;;;;;;;-4.69;73.87;96216.12;1695207;84;21532;-72
2022/01/23 06:05:21;;;;;;;5.27;3.43;;;;;;;-4.66;74.08;96219.25;1694666;85;21019;-72
2022/01/23 06:07:51;;;;;;;7.47;4.00;;;;;;;-4.72;74.48;96226.69;1694105;85;21078;-72
2022/01/23 06:10:24;;;;;;;6.67;3.70;;;;;;;-4.68;74.27;96224.34;1695551;84;21019;-71
2022/01/23 06:12:50;;;;;;;6.93;3.50;;;;;;;-4.66;74.16;96225.31;1695369;84;21106;-72
2022/01/23 06:15:18;;;;;;;6.70;3.60;;;;;;;-4.65;73.69;96230.05;1694955;85;21778;-72
2022/01/23 06:17:45;;;;;;;8.77;3.77;;;;;;;-4.62;73.83;96225.05;1695402;84;21074;-72
2022/01/23 06:20:30;;;;;;;8.53;4.57;;;;;;;-4.63;73.64;96219.02;1695618;84;21484;-72
2022/01/23 06:23:15;;;;;;;10.40;5.40;;;;;;;-4.64;73.53;96209.91;1694928;85;21034;-72
2022/01/23 06:25:52;;;;;;;17.13;9.93;;;;;;;-4.57;73.78;96207.72;1693398;85;21066;-71
2022/01/23 06:29:02;;;;;;;55.57;34.97;;;;;;;-4.52;73.76;96202.80;1695332;85;21118;-72
2022/01/23 06:31:29;;;;;;;10.63;5.93;;;;;;;-4.50;73.45;96207.63;1701032;84;21094;-73
2022/01/23 06:33:55;;;;;;;26.57;15.70;;;;;;;-4.44;73.45;96211.77;1705098;84;20987;-72
2022/01/23 06:36:21;;;;;;;7.23;4.30;;;;;;;-4.40;73.37;96206.37;1704965;84;21096;-73
2022/01/23 06:38:48;;;;;;;9.77;6.10;;;;;;;-4.41;72.80;96213.23;1705148;84;21102;-72
2022/01/23 06:41:15;;;;;;;8.93;5.37;;;;;;;-4.36;73.18;96220.77;1705194;84;21014;-72
2022/01/23 06:44:00;;;;;;;6.80;4.30;;;;;;;-4.33;72.95;96208.45;1704828;84;20991;-72
2022/01/23 06:46:33;;;;;;;9.83;4.10;;;;;;;-4.37;72.40;96218.11;1704770;84;21479;-72
2022/01/23 06:49:01;;;;;;;12.47;5.80;;;;;;;-4.35;72.53;96215.21;1677229;84;21558;-72
2022/01/23 06:51:28;;;;;;;10.63;4.80;;;;;;;-4.38;72.11;96212.49;1705204;84;21022;-72
2022/01/23 06:53:55;;;;;;;11.87;5.87;;;;;;;-4.33;72.35;96221.70;1704944;84;20995;-72
2022/01/23 06:56:22;;;;;;;13.53;6.17;;;;;;;-4.28;72.49;96217.28;1705083;84;21042;-72
2022/01/23 06:58:49;;;;;;;9.93;4.60;;;;;;;-4.25;72.08;96211.39;1704781;84;21042;-72
2022/01/23 07:01:17;;;;;;;7.53;3.57;;;;;;;-4.23;71.91;96213.64;1705199;84;21014;-73
2022/01/23 07:03:48;;;;;;;8.07;4.30;;;;;;;-4.19;71.35;96197.49;1703330;84;21571;-73
2022/01/23 07:06:22;;;;;;;10.40;6.03;;;;;;;-4.23;71.28;96202.05;1674209;84;20994;-73
2022/01/23 07:09:09;;;;;;;6.20;3.57;;;;;;;-4.18;71.42;96201.86;1704025;84;21568;-72
2022/01/23 07:11:44;;;;;;;5.50;3.93;;;;;;;-4.15;71.35;96208.02;1703090;84;21535;-72
2022/01/23 07:14:22;;;;;;;7.60;3.70;;;;;;;-4.22;71.43;96187.92;1701222;84;21098;-72
2022/01/23 07:16:50;;;;;;;7.47;4.20;;;;;;;-4.10;71.37;96184.17;1703256;84;21034;-72
2022/01/23 07:19:19;;;;;;;6.07;3.80;;;;;;;-4.10;70.97;96197.94;1703895;84;21085;-72
2022/01/23 07:21:47;;;;;;;6.20;3.37;;;;;;;-4.05;71.08;96193.00;1704704;84;21358;-72
2022/01/23 07:24:15;;;;;;;7.20;3.40;;;;;;;-4.15;70.57;96201.58;1704906;84;21050;-72
2022/01/23 07:26:42;;;;;;;11.07;6.20;;;;;;;-4.08;70.97;96205.72;1705019;84;21054;-72
2022/01/23 07:29:09;;;;;;;6.93;4.10;;;;;;;-4.00;71.01;96204.00;1705029;84;21057;-72
2022/01/23 07:34:07;;;;;;;5.70;3.53;;;;;;;-4.09;70.30;96198.81;1704937;84;20987;-72
2022/01/23 07:36:36;;;;;;;9.70;3.43;;;;;;;-4.18;70.80;96200.16;1705240;84;21085;-73
2022/01/23 07:39:05;;;;;;;9.03;3.80;;;;;;;-4.23;70.94;96208.48;1704441;84;21539;-73
2022/01/23 07:41:40;;;;;;;4.50;1.73;;;;;;;-4.22;71.49;96209.83;1705126;84;21057;-72
2022/01/23 07:44:08;;;;;;;6.23;3.40;;;;;;;-4.24;71.25;96212.73;1702797;84;21066;-72
2022/01/23 07:46:37;;;;;;;6.73;4.00;;;;;;;-4.20;71.44;96203.47;1666441;84;21030;-73
2022/01/23 07:49:05;;;;;;;5.47;3.13;;;;;;;-4.18;71.74;96207.88;1701426;84;21481;-72
2022/01/23 07:51:52;;;;;;;6.33;3.77;;;;;;;-4.22;71.93;96210.23;1644310;87;21045;-72
2022/01/23 07:54:22;;;;;;;4.27;2.33;;;;;;;-4.15;72.08;96218.74;1662650;86;21058;-72
2022/01/23 07:56:56;;;;;;;6.77;4.47;;;;;;;-4.17;72.37;96213.50;1667837;84;21018;-72
2022/01/23 07:59:27;;;;;;;5.40;2.90;;;;;;;-4.13;72.21;96210.69;1689513;84;21535;-73
2022/01/23 08:02:01;;;;;;;18.33;8.30;;;;;;;-4.12;72.04;96218.88;1694278;84;20991;-72
2022/01/23 08:04:39;;;;;;;7.67;3.27;;;;;;;-4.12;71.89;96209.86;1683714;84;21046;-72
2022/01/23 08:07:19;;;;;;;6.53;3.00;;;;;;;-4.18;71.95;96205.31;1705273;84;21528;-72
2022/01/23 08:09:50;;;;;;;6.12;3.05;;;;;;;-4.11;72.26;96210.73;1705131;84;21042;-72
2022/01/23 08:12:17;;;;;;;10.40;4.40;;;;;;;-4.09;72.60;96209.12;1704977;84;21038;-72
2022/01/23 08:14:43;;;;;;;6.07;3.20;;;;;;;-4.07;72.56;96207.09;1705305;84;21097;-72
2022/01/23 08:17:10;;;;;;;7.60;3.70;;;;;;;-4.11;73.45;96197.44;1705365;84;21504;-72
2022/01/23 08:19:36;;;;;;;11.33;5.73;;;;;;;-4.11;74.01;96195.27;1705140;84;21086;-72
2022/01/23 08:22:03;;;;;;;5.10;3.27;;;;;;;-4.10;74.53;96190.20;1704943;84;21460;-72
2022/01/23 08:24:30;;;;;;;6.07;3.23;;;;;;;-4.05;75.73;96203.31;1705269;84;21070;-72
2022/01/23 08:26:56;;;;;;;8.10;3.57;;;;;;;-4.07;75.66;96205.80;1705395;84;21042;-72
2022/01/23 08:29:23;;;;;;;4.93;3.27;;;;;;;-4.00;75.41;96202.70;1705000;84;21026;-72
2022/01/23 08:31:50;;;;;;;5.70;3.40;;;;;;;-4.00;75.15;96208.28;1697728;84;21103;-72
2022/01/23 08:34:16;;;;;;;5.07;3.37;;;;;;;-3.97;74.69;96194.23;1690419;84;21030;-72
2022/01/23 08:36:43;;;;;;;8.50;4.00;;;;;;;-3.87;74.52;96196.42;1690296;84;21086;-73
2022/01/23 08:39:09;;;;;;;14.73;8.27;;;;;;;-3.81;73.64;96194.53;1690015;85;21023;-72
2022/01/23 08:42:36;;;;;;;9.17;3.30;;;;;;;-3.78;73.22;96193.38;1690296;85;20999;-72
2022/01/23 08:44:14;;;;;;;6.83;3.47;;;;;;;-3.81;72.26;96179.94;1669096;85;21051;-73
2022/01/23 08:46:41;;;;;;;7.50;3.43;;;;;;;-3.79;71.48;96190.33;1690231;84;21050;-73
2022/01/23 08:49:08;;;;;;;6.23;2.73;;;;;;;-3.81;71.25;96195.81;1689892;85;21631;-73
2022/01/23 08:51:34;;;;;;;4.30;2.27;;;;;;;-3.84;71.07;96198.27;1690433;85;21007;-73
2022/01/23 08:54:03;;;;;;;7.33;3.30;;;;;;;-3.83;70.75;96201.30;1690248;84;21007;-74
2022/01/23 08:56:31;;;;;;;7.03;3.53;;;;;;;-3.81;70.76;96203.55;1690072;85;21070;-73
2022/01/23 08:58:58;;;;;;;3.93;2.23;;;;;;;-3.76;70.54;96210.67;1690383;84;21523;-73
2022/01/23 09:01:25;;;;;;;8.23;3.43;;;;;;;-3.72;70.39;96209.14;1690561;84;21046;-73
2022/01/23 09:03:52;;;;;;;4.63;2.43;;;;;;;-3.70;70.44;96217.42;1690204;84;21031;-73
2022/01/23 09:06:19;;;;;;;7.03;3.77;;;;;;;-3.71;70.02;96207.02;1690570;84;21018;-73
2022/01/23 09:08:46;;;;;;;5.13;2.80;;;;;;;-3.68;70.19;96215.31;1690387;84;21066;-73
2022/01/23 09:11:25;;;;;;;5.37;2.40;;;;;;;-3.67;70.63;96214.52;1689887;84;21118;-74
2022/01/23 09:16:08;;;;;;;6.73;2.73;;;;;;;-3.79;70.91;96223.84;1690279;84;21066;-73
2022/01/23 09:18:35;;;;;;;9.87;5.73;;;;;;;-3.76;70.89;96215.84;1689769;85;21094;-73
2022/01/23 09:21:03;;;;;;;8.67;3.63;;;;;;;-3.67;71.23;96228.70;1690214;85;21051;-74
2022/01/23 09:23:31;;;;;;;6.67;3.70;;;;;;;-3.71;71.00;96227.66;1690203;85;21102;-74
2022/01/23 09:26:00;;;;;;;6.13;3.87;;;;;;;-3.70;71.28;96230.73;1690447;84;21027;-74
2022/01/23 09:28:32;;;;;;;8.27;4.53;;;;;;;-3.64;71.40;96219.80;1690194;85;21049;-73
2022/01/23 09:30:55;;;;;;;10.37;4.90;;;;;;;-3.59;71.24;96215.73;1689605;85;21015;-73
2022/01/23 09:33:21;;;;;;;9.27;5.03;;;;;;;-3.48;71.43;96222.25;1699207;84;21034;-74
2022/01/23 09:35:48;;;;;;;5.87;2.83;;;;;;;-3.44;71.03;96219.01;1699683;84;21018;-74
2022/01/23 09:38:14;;;;;;;6.73;3.57;;;;;;;-3.55;70.06;96213.37;1699540;84;21118;-74
2022/01/23 09:40:42;;;;;;;6.67;4.00;;;;;;;-3.48;70.37;96206.77;1699736;84;21018;-74
2022/01/23 09:43:19;;;;;;;3.53;2.33;;;;;;;-3.41;70.39;96210.11;1699549;84;21043;-74
2022/01/23 09:45:50;;;;;;;8.67;4.17;;;;;;;-3.43;69.70;96202.70;1699765;84;21026;-74
2022/01/23 09:48:18;;;;;;;6.43;4.00;;;;;;;-3.38;69.82;96213.23;1699791;84;21081;-74
2022/01/23 09:50:47;;;;;;;7.23;4.10;;;;;;;-3.38;69.70;96205.08;1699654;84;21047;-74
2022/01/23 09:53:16;;;;;;;8.97;4.70;;;;;;;-3.35;69.73;96205.62;1699496;84;21002;-74
2022/01/23 09:55:46;;;;;;;7.33;4.37;;;;;;;-3.35;69.47;96203.95;1699766;84;21078;-74
2022/01/23 09:58:16;;;;;;;8.20;4.40;;;;;;;-3.37;69.64;96214.60;1699705;84;21071;-74
2022/01/23 10:00:43;;;;;;;8.93;4.57;;;;;;;-3.39;69.45;96212.77;1699589;84;21521;-73
2022/01/23 10:03:09;;;;;;;9.37;4.23;;;;;;;-3.46;69.71;96206.44;1699838;84;21015;-74
2022/01/23 10:05:38;;;;;;;11.30;5.53;;;;;;;-3.48;69.86;96209.35;1699093;84;21073;-74
2022/01/23 10:08:07;;;;;;;7.20;3.97;;;;;;;-3.44;69.73;96198.78;1699315;84;21007;-74
2022/01/23 10:10:38;;;;;;;8.20;4.73;;;;;;;-3.61;69.43;96207.92;1699771;84;21022;-74
2022/01/23 10:13:02;;;;;;;6.63;3.77;;;;;;;-3.55;69.68;96206.05;1699679;84;21114;-74
2022/01/23 10:15:32;;;;;;;9.80;4.97;;;;;;;-3.56;69.72;96205.14;1699426;84;21069;-74
2022/01/23 10:18:00;;;;;;;11.17;5.33;;;;;;;-3.57;70.30;96206.37;1699708;84;21002;-74
2022/01/23 10:20:27;;;;;;;9.27;5.40;;;;;;;-3.55;70.27;96207.34;1699528;84;21130;-72
2022/01/23 10:22:55;;;;;;;8.57;4.40;;;;;;;-3.58;69.90;96204.59;1699710;84;21592;-73
2022/01/23 10:25:28;;;;;;;10.33;5.17;;;;;;;-3.70;69.80;96208.40;1699523;84;21114;-73
2022/01/23 10:28:06;;;;;;;26.70;10.15;;;;;;;-3.61;69.37;96205.34;1699759;84;21009;-74
2022/01/23 10:30:39;;;;;;;11.30;6.40;;;;;;;-3.57;69.32;96205.97;1699650;84;21018;-74
2022/01/23 10:33:14;;;;;;;7.75;3.10;;;;;;;-3.60;69.40;96217.44;1692416;84;21067;-74
2022/01/23 10:36:15;;;;;;;10.40;5.27;;;;;;;-3.61;69.16;96205.75;1689867;84;21098;-74
2022/01/23 10:38:59;;;;;;;14.67;7.37;;;;;;;-3.71;69.27;96205.33;1690194;84;21517;-73
2022/01/23 10:41:47;;;;;;;11.10;6.03;;;;;;;-3.65;69.33;96211.20;1690213;84;21039;-74
2022/01/23 10:49:51;;;;;;;14.83;7.70;;;;;;;-3.58;69.49;96200.34;1676901;85;21109;-74
2022/01/23 10:52:38;;;;;;;9.77;5.00;;;;;;;-3.58;69.32;96205.50;1662415;86;21068;-74
2022/01/23 10:55:15;;;;;;;12.37;6.80;;;;;;;-3.60;69.47;96200.67;1690204;85;21122;-74
2022/01/23 10:57:45;;;;;;;11.97;6.13;;;;;;;-3.56;69.70;96204.27;1677110;85;21046;-74
2022/01/23 11:00:28;;;;;;;10.93;5.33;;;;;;;-3.51;69.71;96200.19;1690266;84;21027;-75
2022/01/23 11:02:57;;;;;;;9.55;5.53;;;;;;;-3.56;69.69;96199.10;1690379;84;21022;-74
2022/01/23 11:05:36;;;;;;;9.67;5.07;;;;;;;-3.52;69.73;96198.03;1690098;84;21003;-74
2022/01/23 11:08:25;;;;;;;7.97;4.73;;;;;;;-3.57;69.87;96186.62;1690327;84;20983;-74
2022/01/23 11:11:07;;;;;;;7.73;4.53;;;;;;;-3.59;69.85;96192.11;1690147;84;21071;-74
2022/01/23 11:19:27;;;;;;;10.37;5.20;;;;;;;-3.58;70.04;96184.88;1690243;84;21014;-74
2022/01/23 11:21:54;;;;;;;10.43;5.47;;;;;;;-3.62;70.41;96194.56;1690265;84;21035;-74
2022/01/23 11:24:25;;;;;;;14.87;6.60;;;;;;;-3.62;70.45;96195.84;1690231;84;21083;-74
2022/01/23 11:27:02;;;;;;;12.73;5.73;;;;;;;-3.58;70.68;96194.28;1688462;85;21051;-74
2022/01/23 11:29:28;;;;;;;14.77;7.47;;;;;;;-3.58;70.77;96202.02;1690285;84;21038;-73
2022/01/23 11:31:55;;;;;;;10.37;6.30;;;;;;;-3.68;71.40;96194.27;1691876;84;21707;-74
2022/01/23 11:34:23;;;;;;;14.67;6.43;;;;;;;-3.66;71.76;96196.92;1704749;84;21090;-75
2022/01/23 11:36:51;;;;;;;9.43;4.30;;;;;;;-3.65;71.57;96187.98;1704903;84;21049;-74
2022/01/23 11:39:37;;;;;;;13.37;7.37;;;;;;;-3.64;71.89;96199.17;1705077;84;21039;-74
2022/01/23 11:50:46;;;;;;;13.10;6.30;;;;;;;-3.57;73.62;96198.23;1704847;84;21038;-75
2022/01/23 11:56:35;;;;;;;21.47;10.30;;;;;;;-3.56;74.71;96199.10;1705007;84;21038;-74
2022/01/23 11:59:28;;;;;;;22.87;10.60;;;;;;;-3.56;75.00;96206.43;1705608;84;21029;-74
2022/01/23 12:02:15;;;;;;;10.77;5.87;;;;;;;-3.56;75.41;96207.72;1705318;84;21030;-75
2022/01/23 12:04:47;;;;;;;11.10;6.63;;;;;;;-3.52;75.37;96215.20;1705120;84;21053;-75
2022/01/23 12:07:20;;;;;;;9.03;5.47;;;;;;;-3.56;75.53;96208.13;1697948;84;21108;-75
2022/01/23 12:10:17;;;;;;;10.13;5.60;;;;;;;-3.60;75.98;96204.55;1705257;84;21034;-75
2022/01/23 12:12:45;;;;;;;11.08;5.42;;;;;;;-3.67;76.74;96197.34;1705349;84;21105;-75
2022/01/23 12:18:21;;;;;;;10.70;6.27;;;;;;;-3.74;77.63;96203.02;1705380;84;21440;-75
2022/01/23 12:20:50;;;;;;;12.63;6.17;;;;;;;-3.73;77.37;96208.64;1704600;84;21599;-75
2022/01/23 12:23:18;;;;;;;12.70;6.57;;;;;;;-3.85;78.33;96212.86;1705361;84;21023;-75
2022/01/23 12:25:50;;;;;;;10.57;5.07;;;;;;;-3.86;79.19;96207.20;1705044;84;20999;-75
2022/01/23 12:28:31;;;;;;;13.43;5.70;;;;;;;-3.86;79.89;96201.17;1702806;84;21058;-75
2022/01/23 12:31:19;;;;;;;8.47;4.43;;;;;;;-3.83;80.63;96203.88;1705375;84;21117;-75
2022/01/23 12:33:50;;;;;;;13.23;6.63;;;;;;;-3.86;80.24;96209.78;1705356;84;21002;-75
2022/01/23 12:36:27;;;;;;;12.67;5.93;;;;;;;-3.72;79.78;96209.14;1705139;84;21043;-75
2022/01/23 12:39:08;;;;;;;12.17;5.40;;;;;;;-3.61;78.92;96204.47;1704778;84;21089;-75
2022/01/23 12:41:41;;;;;;;9.63;5.20;;;;;;;-3.52;77.93;96208.34;1702451;84;21098;-75
2022/01/23 12:44:26;;;;;;;10.83;5.23;;;;;;;-3.45;77.42;96212.48;1677848;84;21022;-75
2022/01/23 12:46:57;;;;;;;13.33;6.30;;;;;;;-3.37;77.00;96213.31;1704484;84;21046;-74
2022/01/23 12:49:38;;;;;;;10.23;5.63;;;;;;;-3.27;76.94;96217.19;1705125;84;21034;-75
2022/01/23 12:52:13;;;;;;;9.43;4.90;;;;;;;-3.28;76.07;96213.73;1705168;84;21037;-75
2022/01/23 12:54:57;;;;;;;11.17;5.67;;;;;;;-3.17;75.94;96218.48;1705362;84;21030;-75
2022/01/23 12:57:37;;;;;;;7.07;3.57;;;;;;;-3.16;75.36;96220.23;1705500;84;21072;-74
2022/01/23 13:00:11;;;;;;;9.57;4.67;;;;;;;-3.18;74.35;96216.28;1677843;84;21081;-74
2022/01/23 13:02:46;;;;;;;6.23;3.43;;;;;;;-3.12;74.68;96222.14;1705158;84;21085;-75
2022/01/23 13:05:11;;;;;;;7.53;4.73;;;;;;;-3.14;74.87;96218.61;1704743;84;22525;-74
2022/01/23 13:13:05;;;;;;;10.05;4.45;;;;;;;-2.99;72.57;96227.02;1705266;84;21575;-73
2022/01/23 13:15:45;;;;;;;10.90;4.70;;;;;;;-2.99;72.13;96240.34;1703201;84;21039;-73
2022/01/23 13:29:59;;;;;;;11.63;5.40;;;;;;;-3.04;70.98;96246.59;1705447;84;21528;-73
2022/01/23 13:32:40;;;;;;;13.18;6.62;;;;;;;-2.99;71.34;96242.51;1702909;84;21553;-73
2022/01/23 13:35:10;;;;;;;11.77;4.67;;;;;;;-2.90;71.31;96244.59;1688637;85;21051;-75
2022/01/23 13:37:40;;;;;;;9.40;5.00;;;;;;;-2.83;71.39;96244.05;1690343;84;21509;-74
2022/01/23 13:40:15;;;;;;;7.67;4.10;;;;;;;-2.74;71.11;96240.98;1690250;84;21082;-73
2022/01/23 14:02:32;;;;;;;23.40;12.00;;;;;;;-2.71;70.01;96277.27;1690346;84;21542;-73
2022/01/23 14:05:19;;;;;;;12.47;6.37;;;;;;;-2.74;70.31;96279.73;1690757;84;21066;-72
2022/01/23 14:07:53;;;;;;;12.00;6.50;;;;;;;-2.67;70.30;96281.73;1690747;84;21026;-73
2022/01/23 14:10:38;;;;;;;10.13;5.63;;;;;;;-2.74;70.16;96293.94;1690291;85;21465;-73
2022/01/23 14:13:14;;;;;;;13.53;6.23;;;;;;;-2.75;70.21;96298.61;1690160;84;21465;-73
2022/01/23 14:15:55;;;;;;;12.27;6.87;;;;;;;-2.75;70.34;96294.32;1690504;85;21074;-73
2022/01/23 14:18:26;;;;;;;10.50;6.07;;;;;;;-2.83;69.94;96291.41;1690258;85;21011;-73
2022/01/23 14:21:04;;;;;;;15.07;8.17;;;;;;;-2.94;69.82;96299.52;1690007;85;21078;-73
2022/01/23 14:23:33;;;;;;;27.30;14.07;;;;;;;-2.96;69.94;96298.14;1690263;84;21061;-74
2022/01/23 14:26:08;;;;;;;16.97;9.17;;;;;;;-2.90;69.99;96302.31;1677506;85;21050;-73
2022/01/23 14:28:44;;;;;;;10.33;5.50;;;;;;;-2.93;68.83;96302.14;1662433;86;21004;-73
2022/01/23 14:31:24;;;;;;;11.13;5.00;;;;;;;-3.00;68.65;96305.27;1677291;85;21093;-73
2022/01/23 14:33:42;;;;;;;13.10;7.40;;;;;;;-3.02;68.54;96311.17;1664178;86;21052;-73
2022/01/23 14:36:31;;;;;;;12.20;6.27;;;;;;;-3.11;68.40;96321.58;1652745;87;21113;-73
2022/01/23 14:39:05;;;;;;;20.83;11.67;;;;;;;-3.15;68.65;96317.11;1653259;87;21603;-73
2022/01/23 14:41:36;;;;;;;10.70;5.17;;;;;;;-3.17;68.73;96320.02;1652777;87;21027;-74
2022/01/23 14:44:16;;;;;;;5.47;3.10;;;;;;;-3.20;67.52;96318.98;1653340;87;21520;-74
2022/01/23 14:46:46;;;;;;;7.07;3.63;;;;;;;-3.30;66.55;96326.70;1653128;87;21097;-74
2022/01/23 14:49:21;;;;;;;6.70;3.17;;;;;;;-3.40;65.52;96330.58;1652952;87;21053;-74
2022/01/23 14:51:42;;;;;;;7.23;3.50;;;;;;;-3.51;65.58;96332.63;1651773;87;21050;-75
2022/01/23 14:54:10;;;;;;;13.17;8.73;;;;;;;-3.63;65.27;96337.20;1653088;87;21057;-75
2022/01/23 14:56:38;;;;;;;25.97;12.60;;;;;;;-3.68;66.08;96332.23;1653560;87;21145;-74
2022/01/23 14:59:08;;;;;;;9.10;4.60;;;;;;;-3.72;66.39;96334.21;1653379;87;21018;-74
2022/01/23 15:01:35;;;;;;;15.77;8.90;;;;;;;-3.78;66.12;96330.94;1653125;87;21081;-73
2022/01/23 15:04:06;;;;;;;16.00;7.30;;;;;;;-3.82;66.26;96331.59;1653281;87;21081;-74
2022/01/23 15:06:33;;;;;;;10.70;5.13;;;;;;;-3.88;66.01;96333.89;1653110;87;21043;-73
2022/01/23 15:09:07;;;;;;;16.77;9.47;;;;;;;-3.99;67.35;96347.52;1652986;87;21583;-74
2022/01/23 15:11:35;;;;;;;15.37;8.23;;;;;;;-4.02;67.94;96345.21;1653149;87;21496;-73
2022/01/23 15:14:04;;;;;;;13.77;7.57;;;;;;;-4.05;68.33;96354.97;1653292;87;21046;-74
2022/01/23 15:16:31;;;;;;;19.67;8.83;;;;;;;-4.14;69.65;96357.95;1653080;87;21050;-73
2022/01/23 15:18:58;;;;;;;9.47;5.17;;;;;;;-4.20;70.26;96356.38;1653274;87;21054;-73
2022/01/23 15:21:25;;;;;;;10.50;5.60;;;;;;;-4.27;71.86;96363.72;1653078;87;21062;-73
2022/01/23 15:23:55;;;;;;;8.53;5.23;;;;;;;-4.36;73.32;96362.84;1652899;87;21026;-72